sensor_id;sensor_type;location;lat;lon;timestamp;pressure;altitude;pressure_sealevel;temperature;humidity
18323;BME280;9287;49.456;11.064;2023-02-16T00:01:23;99315.94;;;-0.65;100.00
18323;BME280;9287;49.456;11.064;2023-02-16T00:03:52;99313.13;;;-0.76;100.00
18323;BME280;9287;49.456;11.064;2023-02-16T00:06:22;99308.03;;;-0.94;100.00
18323;BME280;9287;49.456;11.064;2023-02-16T00:08:51;99318.28;;;-0.91;100.00
18323;BME280;9287;49.456;11.064;2023-02-16T00:11:30;99312.25;;;-0.98;100.00
18323;BME280;9287;49.456;11.064;2023-02-16T00:14:17;99311.09;;;-0.85;100.00
18323;BME280;9287;49.456;11.064;2023-02-16T00:16:47;99313.47;;;-0.89;100.00
18323;BME280;9287;49.456;11.064;2023-02-16T00:19:18;99317.47;;;-0.91;100.00
18323;BME280;9287;49.456;11.064;2023-02-16T00:21:49;99315.19;;;-1.16;100.00
18323;BME280;9287;49.456;11.064;2023-02-16T00:24:17;99313.06;;;-1.14;100.00
18323;BME280;9287;49.456;11.064;2023-02-16T00:26:47;99309.19;;;-1.23;100.00
18323;BME280;9287;49.456;11.064;2023-02-16T00:29:19;99305.50;;;-1.17;100.00
18323;BME280;9287;49.456;11.064;2023-02-16T00:31:48;99302.34;;;-1.14;100.00
18323;BME280;9287;49.456;11.064;2023-02-16T00:34:31;99299.44;;;-1.13;100.00
18323;BME280;9287;49.456;11.064;2023-02-16T00:37:02;99298.28;;;-1.00;100.00
18323;BME280;9287;49.456;11.064;2023-02-16T00:39:30;99302.66;;;-0.94;100.00
18323;BME280;9287;49.456;11.064;2023-02-16T00:42:00;99291.13;;;-0.94;100.00
18323;BME280;9287;49.456;11.064;2023-02-16T00:44:32;99295.34;;;-0.98;100.00
18323;BME280;9287;49.456;11.064;2023-02-16T00:47:02;99293.56;;;-0.93;100.00
18323;BME280;9287;49.456;11.064;2023-02-16T00:49:30;99291.94;;;-0.94;100.00
18323;BME280;9287;49.456;11.064;2023-02-16T00:51:58;99298.44;;;-0.90;100.00
18323;BME280;9287;49.456;11.064;2023-02-16T00:54:27;99292.44;;;-0.97;100.00
18323;BME280;9287;49.456;11.064;2023-02-16T00:56:57;99288.28;;;-0.88;100.00
18323;BME280;9287;49.456;11.064;2023-02-16T00:59:25;99288.81;;;-0.86;100.00
18323;BME280;9287;49.456;11.064;2023-02-16T01:01:53;99295.69;;;-0.95;100.00
18323;BME280;9287;49.456;11.064;2023-02-16T01:04:22;99298.28;;;-1.00;100.00
18323;BME280;9287;49.456;11.064;2023-02-16T01:06:51;99293.09;;;-0.90;100.00
18323;BME280;9287;49.456;11.064;2023-02-16T01:09:37;99292.44;;;-0.97;100.00
18323;BME280;9287;49.456;11.064;2023-02-16T01:12:22;99282.97;;;-0.83;100.00
18323;BME280;9287;49.456;11.064;2023-02-16T01:14:53;99284.56;;;-0.87;100.00
18323;BME280;9287;49.456;11.064;2023-02-16T01:17:22;99289.59;;;-0.68;100.00
18323;BME280;9287;49.456;11.064;2023-02-16T01:19:50;99274.53;;;-0.75;100.00
18323;BME280;9287;49.456;11.064;2023-02-16T01:22:18;99281.44;;;-0.79;100.00
18323;BME280;9287;49.456;11.064;2023-02-16T01:24:47;99282.47;;;-0.80;100.00
18323;BME280;9287;49.456;11.064;2023-02-16T01:27:15;99280.06;;;-0.81;100.00
18323;BME280;9287;49.456;11.064;2023-02-16T01:29:43;99272.72;;;-0.86;100.00
18323;BME280;9287;49.456;11.064;2023-02-16T01:32:11;99277.13;;;-0.80;100.00
18323;BME280;9287;49.456;11.064;2023-02-16T01:34:40;99277.13;;;-0.80;100.00
18323;BME280;9287;49.456;11.064;2023-02-16T01:37:12;99267.94;;;-0.84;100.00
18323;BME280;9287;49.456;11.064;2023-02-16T01:39:40;99263.63;;;-0.85;100.00
18323;BME280;9287;49.456;11.064;2023-02-16T01:42:26;99260.41;;;-0.87;100.00
18323;BME280;9287;49.456;11.064;2023-02-16T01:45:00;99256.19;;;-0.99;100.00
18323;BME280;9287;49.456;11.064;2023-02-16T01:47:36;99264.63;;;-0.91;100.00
18323;BME280;9287;49.456;11.064;2023-02-16T01:50:14;99272.25;;;-0.83;100.00
18323;BME280;9287;49.456;11.064;2023-02-16T01:52:46;99265.81;;;-0.82;100.00
18323;BME280;9287;49.456;11.064;2023-02-16T01:55:19;99264.06;;;-0.93;100.00
18323;BME280;9287;49.456;11.064;2023-02-16T01:57:53;99265.53;;;-1.02;100.00
18323;BME280;9287;49.456;11.064;2023-02-16T02:00:27;99256.88;;;-1.09;100.00
18323;BME280;9287;49.456;11.064;2023-02-16T02:05:31;99254.25;;;-1.04;100.00
18323;BME280;9287;49.456;11.064;2023-02-16T02:08:16;99247.28;;;-1.05;100.00
18323;BME280;9287;49.456;11.064;2023-02-16T02:10:55;99253.91;;;-0.91;100.00
18323;BME280;9287;49.456;11.064;2023-02-16T02:13:31;99251.41;;;-0.97;100.00
18323;BME280;9287;49.456;11.064;2023-02-16T02:16:04;99248.38;;;-1.01;100.00
18323;BME280;9287;49.456;11.064;2023-02-16T02:18:33;99247.41;;;-0.95;100.00
18323;BME280;9287;49.456;11.064;2023-02-16T02:21:27;99246.50;;;-1.00;100.00
18323;BME280;9287;49.456;11.064;2023-02-16T02:27:32;99236.59;;;-1.00;100.00
18323;BME280;9287;49.456;11.064;2023-02-16T02:30:21;99221.28;;;-1.04;100.00
18323;BME280;9287;49.456;11.064;2023-02-16T02:33:05;99225.09;;;-1.17;100.00
18323;BME280;9287;49.456;11.064;2023-02-16T02:35:45;99223.81;;;-1.31;100.00
18323;BME280;9287;49.456;11.064;2023-02-16T02:38:22;99225.09;;;-1.17;100.00
18323;BME280;9287;49.456;11.064;2023-02-16T02:40:57;99231.78;;;-1.36;100.00
18323;BME280;9287;49.456;11.064;2023-02-16T02:43:32;99232.66;;;-1.31;100.00
18323;BME280;9287;49.456;11.064;2023-02-16T02:46:06;99233.88;;;-1.38;100.00
18323;BME280;9287;49.456;11.064;2023-02-16T02:48:35;99226.81;;;-1.28;100.00
18323;BME280;9287;49.456;11.064;2023-02-16T02:51:09;99232.34;;;-1.34;100.00
18323;BME280;9287;49.456;11.064;2023-02-16T02:53:59;99238.19;;;-1.37;100.00
18323;BME280;9287;49.456;11.064;2023-02-16T02:56:45;99229.91;;;-1.36;100.00
18323;BME280;9287;49.456;11.064;2023-02-16T02:59:36;99229.66;;;-1.34;100.00
18323;BME280;9287;49.456;11.064;2023-02-16T03:02:23;99218.53;;;-1.26;100.00
18323;BME280;9287;49.456;11.064;2023-02-16T03:04:52;99227.47;;;-1.37;100.00
18323;BME280;9287;49.456;11.064;2023-02-16T03:07:23;99225.22;;;-1.46;100.00
18323;BME280;9287;49.456;11.064;2023-02-16T03:10:13;99221.00;;;-1.42;100.00
18323;BME280;9287;49.456;11.064;2023-02-16T03:13:00;99218.47;;;-1.31;100.00
18323;BME280;9287;49.456;11.064;2023-02-16T03:15:30;99215.53;;;-1.30;100.00
18323;BME280;9287;49.456;11.064;2023-02-16T03:17:59;99217.56;;;-1.37;100.00
18323;BME280;9287;49.456;11.064;2023-02-16T03:20:47;99203.91;;;-1.35;100.00
18323;BME280;9287;49.456;11.064;2023-02-16T03:23:33;99210.28;;;-1.42;100.00
18323;BME280;9287;49.456;11.064;2023-02-16T03:26:20;99202.81;;;-1.39;100.00
18323;BME280;9287;49.456;11.064;2023-02-16T03:29:06;99204.91;;;-1.42;100.00
18323;BME280;9287;49.456;11.064;2023-02-16T03:31:50;99190.75;;;-1.37;100.00
18323;BME280;9287;49.456;11.064;2023-02-16T03:34:20;99187.22;;;-1.43;100.00
18323;BME280;9287;49.456;11.064;2023-02-16T03:36:50;99190.88;;;-1.49;100.00
18323;BME280;9287;49.456;11.064;2023-02-16T03:39:19;99181.84;;;-1.43;100.00
18323;BME280;9287;49.456;11.064;2023-02-16T03:41:49;99198.56;;;-1.35;100.00
18323;BME280;9287;49.456;11.064;2023-02-16T03:44:18;99194.34;;;-1.31;100.00
18323;BME280;9287;49.456;11.064;2023-02-16T03:46:47;99185.59;;;-1.44;100.00
18323;BME280;9287;49.456;11.064;2023-02-16T03:49:15;99179.88;;;-1.30;100.00
18323;BME280;9287;49.456;11.064;2023-02-16T03:51:43;99179.34;;;-1.49;100.00
18323;BME280;9287;49.456;11.064;2023-02-16T03:54:11;99178.13;;;-1.42;100.00
18323;BME280;9287;49.456;11.064;2023-02-16T03:56:39;99179.91;;;-1.47;100.00
18323;BME280;9287;49.456;11.064;2023-02-16T03:59:07;99182.44;;;-1.57;100.00
18323;BME280;9287;49.456;11.064;2023-02-16T04:01:35;99187.03;;;-1.53;100.00
18323;BME280;9287;49.456;11.064;2023-02-16T04:04:04;99185.59;;;-1.44;100.00
18323;BME280;9287;49.456;11.064;2023-02-16T04:06:32;99189.91;;;-1.43;100.00
18323;BME280;9287;49.456;11.064;2023-02-16T04:09:00;99217.09;;;-1.51;100.00
18323;BME280;9287;49.456;11.064;2023-02-16T04:11:27;99221.06;;;-1.53;100.00
18323;BME280;9287;49.456;11.064;2023-02-16T04:14:13;99227.66;;;-1.44;100.00
18323;BME280;9287;49.456;11.064;2023-02-16T04:16:41;99236.56;;;-1.38;100.00
18323;BME280;9287;49.456;11.064;2023-02-16T04:19:10;99225.84;;;-1.38;100.00
18323;BME280;9287;49.456;11.064;2023-02-16T04:21:38;99231.72;;;-1.42;100.00
18323;BME280;9287;49.456;11.064;2023-02-16T04:24:06;99239.31;;;-1.33;100.00
18323;BME280;9287;49.456;11.064;2023-02-16T04:26:33;99239.97;;;-1.26;100.00
18323;BME280;9287;49.456;11.064;2023-02-16T04:29:01;99241.53;;;-1.30;100.00
18323;BME280;9287;49.456;11.064;2023-02-16T04:31:29;99242.00;;;-1.33;100.00
18323;BME280;9287;49.456;11.064;2023-02-16T04:33:56;99239.41;;;-1.28;100.00
18323;BME280;9287;49.456;11.064;2023-02-16T04:36:25;99244.59;;;-1.38;100.00
18323;BME280;9287;49.456;11.064;2023-02-16T04:38:53;99241.13;;;-1.39;100.00
18323;BME280;9287;49.456;11.064;2023-02-16T04:41:21;99235.50;;;-1.37;100.00
18323;BME280;9287;49.456;11.064;2023-02-16T04:43:49;99229.59;;;-1.39;100.00
18323;BME280;9287;49.456;11.064;2023-02-16T04:46:16;99227.16;;;-1.58;100.00
18323;BME280;9287;49.456;11.064;2023-02-16T04:48:45;99223.09;;;-1.44;100.00
18323;BME280;9287;49.456;11.064;2023-02-16T04:51:13;99214.31;;;-1.56;100.00
18323;BME280;9287;49.456;11.064;2023-02-16T04:53:42;99225.13;;;-1.51;100.00
18323;BME280;9287;49.456;11.064;2023-02-16T04:56:10;99224.56;;;-1.53;100.00
18323;BME280;9287;49.456;11.064;2023-02-16T04:58:38;99221.63;;;-1.68;100.00
18323;BME280;9287;49.456;11.064;2023-02-16T05:01:06;99215.41;;;-1.57;100.00
18323;BME280;9287;49.456;11.064;2023-02-16T05:03:34;99222.78;;;-1.64;100.00
18323;BME280;9287;49.456;11.064;2023-02-16T05:06:02;99232.81;;;-1.71;100.00
18323;BME280;9287;49.456;11.064;2023-02-16T05:08:30;99238.16;;;-1.71;100.00
18323;BME280;9287;49.456;11.064;2023-02-16T05:10:59;99231.38;;;-1.62;100.00
18323;BME280;9287;49.456;11.064;2023-02-16T05:13:44;99226.34;;;-1.75;100.00
18323;BME280;9287;49.456;11.064;2023-02-16T05:16:30;99224.88;;;-1.66;100.00
18323;BME280;9287;49.456;11.064;2023-02-16T05:18:57;99236.72;;;-1.62;100.00
18323;BME280;9287;49.456;11.064;2023-02-16T05:21:25;99237.34;;;-1.71;100.00
18323;BME280;9287;49.456;11.064;2023-02-16T05:24:02;99232.56;;;-1.86;100.00
18323;BME280;9287;49.456;11.064;2023-02-16T05:26:32;99236.22;;;-1.92;100.00
18323;BME280;9287;49.456;11.064;2023-02-16T05:29:01;99240.53;;;-1.74;100.00
18323;BME280;9287;49.456;11.064;2023-02-16T05:31:29;99238.09;;;-1.76;100.00
18323;BME280;9287;49.456;11.064;2023-02-16T05:33:57;99236.03;;;-1.86;100.00
18323;BME280;9287;49.456;11.064;2023-02-16T05:36:25;99239.44;;;-1.90;100.00
18323;BME280;9287;49.456;11.064;2023-02-16T05:38:53;99245.47;;;-1.83;100.00
18323;BME280;9287;49.456;11.064;2023-02-16T05:41:20;99253.19;;;-1.70;100.00
18323;BME280;9287;49.456;11.064;2023-02-16T05:43:54;99248.59;;;-1.74;100.00
18323;BME280;9287;49.456;11.064;2023-02-16T05:46:24;99256.50;;;-1.80;100.00
18323;BME280;9287;49.456;11.064;2023-02-16T05:48:52;99247.75;;;-1.75;100.00
18323;BME280;9287;49.456;11.064;2023-02-16T05:51:20;99262.84;;;-1.69;100.00
18323;BME280;9287;49.456;11.064;2023-02-16T05:53:48;99257.97;;;-1.72;100.00
18323;BME280;9287;49.456;11.064;2023-02-16T05:56:16;99259.59;;;-1.71;100.00
18323;BME280;9287;49.456;11.064;2023-02-16T05:58:45;99265.72;;;-1.59;100.00
18323;BME280;9287;49.456;11.064;2023-02-16T06:01:14;99262.84;;;-1.69;100.00
18323;BME280;9287;49.456;11.064;2023-02-16T06:03:42;99262.69;;;-1.79;100.00
18323;BME280;9287;49.456;11.064;2023-02-16T06:06:10;99261.69;;;-1.73;100.00
18323;BME280;9287;49.456;11.064;2023-02-16T06:08:38;99260.84;;;-1.62;100.00
18323;BME280;9287;49.456;11.064;2023-02-16T06:11:06;99258.31;;;-1.68;100.00
18323;BME280;9287;49.456;11.064;2023-02-16T06:13:54;99259.78;;;-1.61;100.00
18323;BME280;9287;49.456;11.064;2023-02-16T06:16:26;99270.84;;;-1.57;100.00
18323;BME280;9287;49.456;11.064;2023-02-16T06:18:54;99267.50;;;-1.48;100.00
18323;BME280;9287;49.456;11.064;2023-02-16T06:21:23;99272.63;;;-1.46;100.00
18323;BME280;9287;49.456;11.064;2023-02-16T06:23:51;99262.88;;;-1.35;100.00
18323;BME280;9287;49.456;11.064;2023-02-16T06:26:18;99272.47;;;-1.39;100.00
18323;BME280;9287;49.456;11.064;2023-02-16T06:28:46;99271.97;;;-1.36;100.00
18323;BME280;9287;49.456;11.064;2023-02-16T06:31:14;99266.59;;;-1.36;100.00
18323;BME280;9287;49.456;11.064;2023-02-16T06:33:43;99263.88;;;-1.25;100.00
18323;BME280;9287;49.456;11.064;2023-02-16T06:36:11;99265.63;;;-1.30;100.00
18323;BME280;9287;49.456;11.064;2023-02-16T06:38:39;99257.50;;;-1.35;100.00
18323;BME280;9287;49.456;11.064;2023-02-16T06:41:07;99262.00;;;-1.24;100.00
18323;BME280;9287;49.456;11.064;2023-02-16T06:43:35;99259.47;;;-1.14;100.00
18323;BME280;9287;49.456;11.064;2023-02-16T06:46:03;99268.31;;;-1.14;100.00
18323;BME280;9287;49.456;11.064;2023-02-16T06:48:31;99272.28;;;-0.99;100.00
18323;BME280;9287;49.456;11.064;2023-02-16T06:51:00;99274.06;;;-0.88;100.00
18323;BME280;9287;49.456;11.064;2023-02-16T06:53:28;99266.88;;;-0.83;100.00
18323;BME280;9287;49.456;11.064;2023-02-16T06:55:56;99285.78;;;-1.11;100.00
18323;BME280;9287;49.456;11.064;2023-02-16T06:58:24;99296.03;;;-1.08;100.00
18323;BME280;9287;49.456;11.064;2023-02-16T07:00:53;99288.69;;;-0.96;100.00
18323;BME280;9287;49.456;11.064;2023-02-16T07:03:21;99284.13;;;-0.95;100.00
18323;BME280;9287;49.456;11.064;2023-02-16T07:05:50;99287.16;;;-0.92;100.00
18323;BME280;9287;49.456;11.064;2023-02-16T07:08:19;99277.97;;;-0.96;100.00
18323;BME280;9287;49.456;11.064;2023-02-16T07:10:47;99283.00;;;-0.99;100.00
18323;BME280;9287;49.456;11.064;2023-02-16T07:13:16;99287.06;;;-0.97;100.00
18323;BME280;9287;49.456;11.064;2023-02-16T07:15:43;99278.75;;;-0.79;100.00
18323;BME280;9287;49.456;11.064;2023-02-16T07:18:12;99284.88;;;-0.61;100.00
18323;BME280;9287;49.456;11.064;2023-02-16T07:20:39;99288.50;;;-0.73;100.00
18323;BME280;9287;49.456;11.064;2023-02-16T07:23:07;99285.22;;;-0.58;100.00
18323;BME280;9287;49.456;11.064;2023-02-16T07:25:36;99275.00;;;-0.78;100.00
18323;BME280;9287;49.456;11.064;2023-02-16T07:28:04;99275.94;;;-0.67;100.00
18323;BME280;9287;49.456;11.064;2023-02-16T07:30:32;99276.47;;;-0.48;100.00
18323;BME280;9287;49.456;11.064;2023-02-16T07:33:00;99282.97;;;-0.44;100.00
18323;BME280;9287;49.456;11.064;2023-02-16T07:35:27;99278.81;;;-0.35;100.00
18323;BME280;9287;49.456;11.064;2023-02-16T07:37:55;99274.50;;;-0.36;100.00
18323;BME280;9287;49.456;11.064;2023-02-16T07:40:23;99261.88;;;-0.36;100.00
18323;BME280;9287;49.456;11.064;2023-02-16T07:42:52;99276.38;;;-0.37;100.00
18323;BME280;9287;49.456;11.064;2023-02-16T07:45:20;99269.59;;;-0.17;100.00
18323;BME280;9287;49.456;11.064;2023-02-16T07:47:48;99276.91;;;-0.13;100.00
18323;BME280;9287;49.456;11.064;2023-02-16T07:50:16;99265.72;;;-0.05;100.00
18323;BME280;9287;49.456;11.064;2023-02-16T07:52:43;99270.13;;;0.07;100.00
18323;BME280;9287;49.456;11.064;2023-02-16T07:55:11;99268.63;;;0.16;100.00
18323;BME280;9287;49.456;11.064;2023-02-16T07:57:39;99267.09;;;0.25;100.00
18323;BME280;9287;49.456;11.064;2023-02-16T08:00:11;99268.22;;;0.29;100.00
18323;BME280;9287;49.456;11.064;2023-02-16T08:02:39;99272.88;;;0.39;100.00
18323;BME280;9287;49.456;11.064;2023-02-16T08:05:07;99271.44;;;0.58;100.00
18323;BME280;9287;49.456;11.064;2023-02-16T08:07:35;99271.03;;;0.44;100.00
18323;BME280;9287;49.456;11.064;2023-02-16T08:10:03;99263.41;;;0.63;100.00
18323;BME280;9287;49.456;11.064;2023-02-16T08:12:32;99261.31;;;0.70;100.00
18323;BME280;9287;49.456;11.064;2023-02-16T08:14:59;99266.22;;;0.46;100.00
18323;BME280;9287;49.456;11.064;2023-02-16T08:17:29;99258.16;;;0.78;100.00
18323;BME280;9287;49.456;11.064;2023-02-16T08:19:57;99253.91;;;0.87;100.00
18323;BME280;9287;49.456;11.064;2023-02-16T08:22:25;99252.78;;;1.15;100.00
18323;BME280;9287;49.456;11.064;2023-02-16T08:24:53;99257.66;;;1.23;100.00
18323;BME280;9287;49.456;11.064;2023-02-16T08:27:20;99258.81;;;1.37;100.00
18323;BME280;9287;49.456;11.064;2023-02-16T08:29:48;99258.47;;;1.91;100.00
18323;BME280;9287;49.456;11.064;2023-02-16T08:32:16;99262.94;;;2.68;100.00
18323;BME280;9287;49.456;11.064;2023-02-16T08:34:45;99268.88;;;2.75;100.00
18323;BME280;9287;49.456;11.064;2023-02-16T08:37:13;99279.13;;;2.89;100.00
18323;BME280;9287;49.456;11.064;2023-02-16T08:39:41;99272.09;;;3.08;100.00
18323;BME280;9287;49.456;11.064;2023-02-16T08:42:12;99275.22;;;3.56;100.00
18323;BME280;9287;49.456;11.064;2023-02-16T08:44:40;99273.03;;;3.68;100.00
18323;BME280;9287;49.456;11.064;2023-02-16T08:47:08;99273.72;;;3.09;100.00
18323;BME280;9287;49.456;11.064;2023-02-16T08:49:37;99280.56;;;4.69;100.00
18323;BME280;9287;49.456;11.064;2023-02-16T08:52:07;99275.94;;;5.04;100.00
18323;BME280;9287;49.456;11.064;2023-02-16T08:54:35;99274.75;;;4.08;100.00
18323;BME280;9287;49.456;11.064;2023-02-16T08:57:04;99282.16;;;3.82;100.00
18323;BME280;9287;49.456;11.064;2023-02-16T08:59:32;99272.50;;;4.20;100.00
18323;BME280;9287;49.456;11.064;2023-02-16T09:02:00;99280.94;;;4.13;100.00
18323;BME280;9287;49.456;11.064;2023-02-16T09:04:28;99283.81;;;3.73;100.00
18323;BME280;9287;49.456;11.064;2023-02-16T09:06:57;99285.38;;;4.38;100.00
18323;BME280;9287;49.456;11.064;2023-02-16T09:09:26;99290.34;;;4.26;100.00
18323;BME280;9287;49.456;11.064;2023-02-16T09:11:54;99289.34;;;4.51;100.00
18323;BME280;9287;49.456;11.064;2023-02-16T09:14:23;99283.81;;;5.34;100.00
18323;BME280;9287;49.456;11.064;2023-02-16T09:16:50;99284.34;;;6.45;93.41
18323;BME280;9287;49.456;11.064;2023-02-16T09:19:20;99293.16;;;6.18;88.27
18323;BME280;9287;49.456;11.064;2023-02-16T09:21:48;99294.97;;;6.04;89.90
18323;BME280;9287;49.456;11.064;2023-02-16T09:24:17;99305.13;;;6.55;88.12
18323;BME280;9287;49.456;11.064;2023-02-16T09:26:46;99311.47;;;6.26;86.95
18323;BME280;9287;49.456;11.064;2023-02-16T09:29:15;99321.13;;;7.40;84.22
18323;BME280;9287;49.456;11.064;2023-02-16T09:31:43;99310.00;;;8.73;71.11
18323;BME280;9287;49.456;11.064;2023-02-16T09:34:16;99315.38;;;8.87;64.94
18323;BME280;9287;49.456;11.064;2023-02-16T09:36:44;99319.25;;;9.31;63.32
18323;BME280;9287;49.456;11.064;2023-02-16T09:39:12;99312.16;;;8.85;64.15
18323;BME280;9287;49.456;11.064;2023-02-16T09:41:59;99313.91;;;8.81;64.23
18323;BME280;9287;49.456;11.064;2023-02-16T09:44:38;99314.91;;;8.49;67.60
18323;BME280;9287;49.456;11.064;2023-02-16T09:47:13;99312.56;;;7.01;74.85
18323;BME280;9287;49.456;11.064;2023-02-16T09:49:44;99308.72;;;7.94;69.61
18323;BME280;9287;49.456;11.064;2023-02-16T09:52:17;99306.28;;;6.49;80.99
18323;BME280;9287;49.456;11.064;2023-02-16T09:54:50;99310.66;;;7.47;75.74
18323;BME280;9287;49.456;11.064;2023-02-16T09:57:25;99308.88;;;7.56;73.14
18323;BME280;9287;49.456;11.064;2023-02-16T10:00:03;99307.50;;;7.73;72.87
18323;BME280;9287;49.456;11.064;2023-02-16T10:02:37;99304.50;;;9.63;63.67
18323;BME280;9287;49.456;11.064;2023-02-16T10:05:19;99297.25;;;9.98;61.67
18323;BME280;9287;49.456;11.064;2023-02-16T10:07:56;99301.63;;;9.37;64.80
18323;BME280;9287;49.456;11.064;2023-02-16T10:10:30;99295.91;;;10.26;58.21
18323;BME280;9287;49.456;11.064;2023-02-16T10:13:05;99291.09;;;10.40;60.55
18323;BME280;9287;49.456;11.064;2023-02-16T10:15:36;99290.63;;;11.71;53.61
18323;BME280;9287;49.456;11.064;2023-02-16T10:18:15;99284.63;;;11.87;53.07
18323;BME280;9287;49.456;11.064;2023-02-16T10:20:45;99283.22;;;11.16;54.67
18323;BME280;9287;49.456;11.064;2023-02-16T10:23:27;99278.25;;;11.01;54.99
18323;BME280;9287;49.456;11.064;2023-02-16T10:26:01;99279.84;;;10.42;56.80
18323;BME280;9287;49.456;11.064;2023-02-16T10:28:38;99282.78;;;10.80;57.06
18323;BME280;9287;49.456;11.064;2023-02-16T10:31:12;99272.72;;;11.36;54.43
18323;BME280;9287;49.456;11.064;2023-02-16T10:33:42;99266.38;;;10.97;55.30
18323;BME280;9287;49.456;11.064;2023-02-16T10:36:16;99264.22;;;12.34;52.06
18323;BME280;9287;49.456;11.064;2023-02-16T10:38:54;99271.75;;;12.46;52.04
18323;BME280;9287;49.456;11.064;2023-02-16T10:41:30;99260.63;;;13.50;49.97
18323;BME280;9287;49.456;11.064;2023-02-16T10:44:04;99265.47;;;14.02;48.10
18323;BME280;9287;49.456;11.064;2023-02-16T10:46:39;99264.06;;;13.59;48.39
18323;BME280;9287;49.456;11.064;2023-02-16T10:49:10;99253.91;;;14.08;47.38
18323;BME280;9287;49.456;11.064;2023-02-16T10:51:41;99249.47;;;13.01;48.84
18323;BME280;9287;49.456;11.064;2023-02-16T10:54:13;99241.09;;;12.65;49.69
18323;BME280;9287;49.456;11.064;2023-02-16T10:56:48;99244.47;;;11.14;53.15
18323;BME280;9287;49.456;11.064;2023-02-16T10:59:21;99239.22;;;11.94;52.14
18323;BME280;9287;49.456;11.064;2023-02-16T11:01:50;99246.72;;;12.27;51.46
18323;BME280;9287;49.456;11.064;2023-02-16T11:04:33;99241.63;;;12.16;51.77
18323;BME280;9287;49.456;11.064;2023-02-16T11:07:04;99237.50;;;12.31;51.99
18323;BME280;9287;49.456;11.064;2023-02-16T11:09:34;99232.69;;;11.69;52.89
18323;BME280;9287;49.456;11.064;2023-02-16T11:12:13;99223.28;;;11.88;52.96
18323;BME280;9287;49.456;11.064;2023-02-16T11:14:48;99225.03;;;11.54;54.26
18323;BME280;9287;49.456;11.064;2023-02-16T11:17:17;99216.06;;;11.83;53.44
18323;BME280;9287;49.456;11.064;2023-02-16T11:19:50;99212.84;;;12.10;53.32
18323;BME280;9287;49.456;11.064;2023-02-16T11:22:27;99201.16;;;11.63;54.78
18323;BME280;9287;49.456;11.064;2023-02-16T11:24:56;99202.06;;;11.84;54.30
18323;BME280;9287;49.456;11.064;2023-02-16T11:27:48;99207.72;;;12.09;53.51
18323;BME280;9287;49.456;11.064;2023-02-16T11:30:27;99194.97;;;11.07;55.67
18323;BME280;9287;49.456;11.064;2023-02-16T11:32:55;99201.41;;;11.49;54.83
18323;BME280;9287;49.456;11.064;2023-02-16T11:35:23;99194.06;;;11.33;55.17
18323;BME280;9287;49.456;11.064;2023-02-16T11:37:51;99203.06;;;11.71;54.36
18323;BME280;9287;49.456;11.064;2023-02-16T11:40:21;99187.25;;;11.85;54.72
18323;BME280;9287;49.456;11.064;2023-02-16T11:42:52;99187.78;;;12.00;54.32
18323;BME280;9287;49.456;11.064;2023-02-16T11:45:28;99189.50;;;12.67;53.33
18323;BME280;9287;49.456;11.064;2023-02-16T11:47:59;99181.41;;;13.03;51.64
18323;BME280;9287;49.456;11.064;2023-02-16T11:50:29;99176.56;;;13.94;49.91
18323;BME280;9287;49.456;11.064;2023-02-16T11:53:13;99174.50;;;13.91;48.47
18323;BME280;9287;49.456;11.064;2023-02-16T11:55:42;99174.63;;;15.50;46.08
18323;BME280;9287;49.456;11.064;2023-02-16T11:58:16;99170.88;;;15.89;44.41
18323;BME280;9287;49.456;11.064;2023-02-16T12:00:54;99161.56;;;15.31;45.58
18323;BME280;9287;49.456;11.064;2023-02-16T12:03:35;99152.09;;;14.29;47.53
18323;BME280;9287;49.456;11.064;2023-02-16T12:06:22;99159.06;;;13.99;47.90
18323;BME280;9287;49.456;11.064;2023-02-16T12:09:05;99162.50;;;13.83;49.26
18323;BME280;9287;49.456;11.064;2023-02-16T12:11:42;99151.69;;;14.03;48.43
18323;BME280;9287;49.456;11.064;2023-02-16T12:14:21;99148.59;;;15.00;47.34
18323;BME280;9287;49.456;11.064;2023-02-16T12:16:55;99142.50;;;15.38;46.52
18323;BME280;9287;49.456;11.064;2023-02-16T12:19:35;99145.53;;;16.19;44.49
18323;BME280;9287;49.456;11.064;2023-02-16T12:22:18;99138.53;;;15.86;44.87
18323;BME280;9287;49.456;11.064;2023-02-16T12:25:00;99132.19;;;14.88;46.36
18323;BME280;9287;49.456;11.064;2023-02-16T12:27:32;99124.38;;;16.61;43.30
18323;BME280;9287;49.456;11.064;2023-02-16T12:30:11;99131.78;;;17.22;42.65
18323;BME280;9287;49.456;11.064;2023-02-16T12:32:58;99127.50;;;17.02;42.38
18323;BME280;9287;49.456;11.064;2023-02-16T12:35:44;99120.72;;;17.68;40.92
18323;BME280;9287;49.456;11.064;2023-02-16T12:38:27;99117.38;;;17.32;40.89
18323;BME280;9287;49.456;11.064;2023-02-16T12:41:10;99111.66;;;16.99;41.78
18323;BME280;9287;49.456;11.064;2023-02-16T12:43:44;99116.13;;;16.42;42.62
18323;BME280;9287;49.456;11.064;2023-02-16T12:46:16;99100.28;;;16.39;42.90
18323;BME280;9287;49.456;11.064;2023-02-16T12:48:53;99102.53;;;16.72;42.50
18323;BME280;9287;49.456;11.064;2023-02-16T12:51:26;99108.69;;;16.65;42.52
18323;BME280;9287;49.456;11.064;2023-02-16T12:53:58;99097.38;;;16.70;43.04
18323;BME280;9287;49.456;11.064;2023-02-16T12:56:31;99089.94;;;16.94;42.21
18323;BME280;9287;49.456;11.064;2023-02-16T12:59:05;99090.22;;;16.89;42.44
18323;BME280;9287;49.456;11.064;2023-02-16T13:01:34;99087.53;;;16.92;41.98
18323;BME280;9287;49.456;11.064;2023-02-16T13:04:10;99087.34;;;16.62;42.55
18323;BME280;9287;49.456;11.064;2023-02-16T13:06:49;99082.78;;;16.70;42.47
18323;BME280;9287;49.456;11.064;2023-02-16T13:09:28;99075.34;;;16.13;43.56
18323;BME280;9287;49.456;11.064;2023-02-16T13:12:06;99074.09;;;16.91;42.22
18323;BME280;9287;49.456;11.064;2023-02-16T13:14:38;99075.34;;;16.13;43.30
18323;BME280;9287;49.456;11.064;2023-02-16T13:17:11;99065.47;;;15.73;44.07
18323;BME280;9287;49.456;11.064;2023-02-16T13:19:45;99058.56;;;15.48;44.73
18323;BME280;9287;49.456;11.064;2023-02-16T13:22:45;99063.22;;;15.28;44.90
18323;BME280;9287;49.456;11.064;2023-02-16T13:25:39;99064.22;;;15.04;45.51
18323;BME280;9287;49.456;11.064;2023-02-16T13:28:29;99059.84;;;14.28;46.34